Time;durP1;ratioP1;P1;durP2;ratioP2;P2;SDS_P1;SDS_P2;PMS_P1;PMS_P2;Temp;Humidity;BMP_temperature;BMP_pressure;BME280_temperature;BME280_humidity;BME280_pressure;Samples;Min_cycle;Max_cycle;Signal;HPM_P1;HPM_P2
2022/01/08 09:16:53;;;;;;;0.70;0.70;;;13.20;73.40;;;13.40;73.96;98981.19;5088977;27;20591;-34
2022/01/08 09:19:20;;;;;;;0.95;0.52;;;13.30;74.80;;;13.55;73.80;98984.97;5022383;28;20258;-35
2022/01/08 09:21:46;;;;;;;0.57;0.57;;;13.40;75.70;;;13.57;73.27;98965.75;5033311;28;20184;-35
2022/01/08 09:24:12;;;;;;;0.70;0.70;;;13.50;76.10;;;13.71;72.58;98962.69;5016601;28;20195;-35
2022/01/08 09:26:39;;;;;;;1.02;0.70;;;13.70;76.00;;;14.04;71.65;99000.28;5050370;28;20179;-35
2022/01/08 09:29:05;;;;;;;0.60;0.60;;;13.90;75.70;;;14.19;71.36;98992.84;5033042;28;20219;-34
2022/01/08 09:31:32;;;;;;;0.75;0.65;;;14.10;75.20;;;14.35;70.72;98995.63;5032973;28;20183;-35
2022/01/08 09:33:58;;;;;;;0.70;0.70;;;14.30;74.70;;;14.39;69.76;98976.25;5000444;28;20254;-34
2022/01/08 09:36:24;;;;;;;0.70;0.70;;;14.40;74.00;;;14.62;69.16;98997.44;5032999;28;20218;-34
2022/01/08 09:38:50;;;;;;;0.63;0.63;;;14.60;73.50;;;14.48;68.47;98956.41;5049389;28;20192;-36
2022/01/08 09:41:16;;;;;;;0.60;0.60;;;14.70;72.90;;;14.80;67.84;98994.88;5050424;28;20191;-35
2022/01/08 09:43:42;;;;;;;1.27;0.73;;;14.90;72.30;;;14.73;67.54;98975.66;5016620;28;20337;-35
2022/01/08 09:46:08;;;;;;;0.55;0.55;;;15.00;71.50;;;14.92;67.65;98995.44;5041938;28;20291;-36
2022/01/08 09:48:34;;;;;;;0.60;0.60;;;15.10;70.90;;;14.82;67.26;98966.97;5050413;28;20653;-36
2022/01/08 09:51:00;;;;;;;0.65;0.65;;;15.20;70.70;;;15.10;66.79;99007.50;5050204;28;20317;-33
2022/01/08 09:53:26;;;;;;;0.70;0.70;;;15.30;70.70;;;15.14;66.14;99002.81;5050596;28;20250;-33
2022/01/08 09:55:52;;;;;;;0.65;0.65;;;15.40;70.00;;;15.19;65.65;98987.59;5032629;28;20216;-32
2022/01/08 09:58:18;;;;;;;0.60;0.60;;;15.60;69.80;;;15.42;65.71;99012.16;5050313;28;20195;-34
2022/01/08 10:00:45;;;;;;;0.70;0.70;;;15.70;69.50;;;15.53;65.46;99006.75;5049061;28;20254;-35
2022/01/08 10:03:26;;;;;;;0.52;0.52;;;15.80;69.10;;;15.70;64.64;99015.47;5048954;28;20207;-34
2022/01/08 10:05:58;;;;;;;0.50;0.50;;;15.90;68.70;;;15.83;64.07;99010.69;5032492;28;20179;-34
2022/01/08 10:08:28;;;;;;;0.70;0.70;;;16.10;68.20;;;15.95;63.67;99003.44;5016694;28;20528;-33
2022/01/08 10:11:03;;;;;;;0.60;0.60;;;16.30;67.90;;;16.11;63.03;99008.72;5032433;28;20190;-33
2022/01/08 10:13:36;;;;;;;0.60;0.60;;;16.40;67.40;;;16.19;62.64;99002.75;5048896;28;20652;-33
2022/01/08 10:18:47;;;;;;;0.68;0.68;;;16.80;66.60;;;17.03;60.39;99008.75;5054911;28;20190;-36
2022/01/08 10:21:22;;;;;;;0.50;0.50;;;17.20;65.80;;;17.55;58.61;99018.84;5068903;28;20336;-34
2022/01/08 10:23:52;;;;;;;0.50;0.50;;;17.60;64.60;;;17.95;57.52;99017.22;5068526;28;20182;-33
2022/01/08 10:26:20;;;;;;;2.17;0.60;;;18.00;63.20;;;18.09;56.86;99017.34;5064920;28;20257;-33
2022/01/08 10:28:51;;;;;;;0.60;0.60;;;;;;;18.32;56.03;99012.19;5038803;28;20199;-34
2022/01/08 10:31:28;;;;;;;0.60;0.60;;;18.60;60.60;;;18.15;56.13;98987.13;5038657;28;20191;-33
2022/01/08 10:34:00;;;;;;;0.50;0.50;;;18.70;60.30;;;18.30;55.87;98998.50;5056627;28;20193;-33
2022/01/08 10:36:32;;;;;;;1.17;0.47;;;18.80;60.00;;;18.40;55.51;99016.59;5056142;28;20211;-34
2022/01/08 10:39:04;;;;;;;0.50;0.50;;;18.90;59.80;;;18.62;54.69;99003.59;5056381;28;20270;-33
2022/01/08 10:41:30;;;;;;;0.77;0.70;;;19.00;59.50;;;18.58;54.82;99002.31;5055805;28;20230;-34
2022/01/08 10:44:22;;;;;;;0.60;0.60;;;19.10;59.30;;;18.57;54.30;98981.59;5056132;28;20188;-33
2022/01/08 10:47:16;;;;;;;0.55;0.45;;;19.10;59.10;;;18.89;53.99;99006.72;5038719;28;20684;-33
2022/01/08 10:50:00;;;;;;;1.13;0.68;;;19.30;58.90;;;18.70;53.60;98981.84;5056038;28;20211;-34
2022/01/08 10:52:26;;;;;;;0.90;0.63;;;19.40;58.60;;;19.00;53.45;99004.53;5055098;28;20199;-33
2022/01/08 10:55:00;;;;;;;1.25;0.50;;;19.40;58.30;;;19.10;53.04;99000.88;5054143;28;20200;-34
2022/01/08 10:57:38;;;;;;;0.60;0.60;;;19.50;58.10;;;19.08;52.91;98995.00;5054732;28;20192;-34
2022/01/08 11:00:12;;;;;;;1.48;0.60;;;19.50;57.90;;;19.10;52.68;98990.41;5054584;28;20203;-33
2022/01/08 11:02:41;;;;;;;0.60;0.60;;;19.60;57.80;;;19.21;52.53;98993.41;5039316;28;20662;-33
2022/01/08 11:05:08;;;;;;;0.60;0.60;;;19.60;57.80;;;19.20;52.28;98996.22;5054597;28;20179;-34
2022/01/08 11:07:34;;;;;;;0.55;0.55;;;19.60;57.60;;;19.08;52.69;98984.53;5054319;28;20649;-34
2022/01/08 11:10:06;;;;;;;0.30;0.30;;;19.60;57.60;;;18.88;52.63;98960.66;5054089;28;20194;-33
2022/01/08 11:12:39;;;;;;;0.98;0.70;;;19.60;57.70;;;18.99;52.86;98991.63;5038604;28;20215;-35
2022/01/08 11:17:41;;;;;;;0.85;0.68;;;19.50;57.70;;;18.63;53.57;98986.94;5054262;28;20663;-34
2022/01/08 11:20:17;;;;;;;0.68;0.68;;;19.40;57.90;;;18.51;54.09;98983.06;5038040;28;20278;-34
2022/01/08 11:22:47;;;;;;;0.50;0.50;;;19.30;58.10;;;18.56;54.21;98986.00;5055579;28;20564;-35
2022/01/08 11:25:33;;;;;;;0.60;0.60;;;19.30;58.10;;;18.51;53.89;98967.41;5054030;28;20648;-34
2022/01/08 11:28:19;;;;;;;1.00;0.80;;;19.30;58.20;;;18.48;54.21;98965.09;5040443;28;20649;-34
2022/01/08 11:30:50;;;;;;;0.70;0.70;;;19.20;58.30;;;18.21;54.27;98936.81;5054134;28;20641;-34
2022/01/08 11:33:24;;;;;;;0.50;0.50;;;19.20;58.40;;;18.23;54.62;98933.06;5038433;28;20592;-35
2022/01/08 11:35:51;;;;;;;0.60;0.60;;;19.10;58.50;;;18.25;54.74;98946.78;5054398;28;20214;-34
2022/01/08 11:38:21;;;;;;;0.60;0.60;;;19.10;58.70;;;18.16;54.88;98946.97;5036555;28;20215;-33
2022/01/08 11:40:49;;;;;;;0.60;0.60;;;19.10;58.70;;;18.08;55.18;98957.47;5053562;28;20233;-34
2022/01/08 11:43:18;;;;;;;0.70;0.70;;;19.10;58.80;;;18.07;55.71;98961.03;5052346;28;20442;-34
2022/01/08 11:45:56;;;;;;;0.60;0.60;;;19.00;59.10;;;17.81;55.81;98949.06;5036930;28;20200;-35
2022/01/08 11:48:37;;;;;;;0.50;0.50;;;19.00;59.20;;;17.92;55.17;98957.50;5053799;28;20637;-34
2022/01/08 11:51:05;;;;;;;0.60;0.60;;;18.90;59.10;;;17.74;56.30;98953.31;5024448;28;20191;-34
2022/01/08 11:53:51;;;;;;;0.60;0.60;;;18.80;59.20;;;17.62;56.80;98948.63;5054796;28;20195;-35
2022/01/08 11:56:32;;;;;;;0.63;0.63;;;18.70;59.50;;;17.52;57.55;98942.75;5054496;28;20200;-34
2022/01/08 11:59:08;;;;;;;0.60;0.60;;;18.60;59.80;;;17.48;57.68;98950.06;5055326;28;20705;-34
2022/01/08 12:01:35;;;;;;;0.68;0.68;;;18.50;60.20;;;17.39;57.76;98914.53;5053517;28;20197;-34
2022/01/08 12:04:01;;;;;;;0.50;0.50;;;18.50;60.40;;;17.26;57.74;98902.03;5037106;28;20187;-34
2022/01/08 12:06:29;;;;;;;0.50;0.50;;;18.40;60.50;;;17.39;57.71;98927.59;5035886;28;20310;-34
2022/01/08 12:11:47;;;;;;;0.57;0.57;;;18.30;61.00;;;17.40;58.21;98919.59;5053627;28;20198;-34
2022/01/08 12:14:22;;;;;;;0.82;0.77;;;18.40;61.10;;;17.42;58.13;98909.00;5053550;28;20179;-35
2022/01/08 12:16:58;;;;;;;0.70;0.70;;;18.40;61.10;;;17.45;57.97;98900.84;5016965;28;20281;-34
2022/01/08 12:19:35;;;;;;;0.70;0.70;;;18.40;61.10;;;17.32;58.35;98890.09;5016874;28;20685;-35
2022/01/08 12:22:16;;;;;;;0.70;0.70;;;18.40;61.10;;;17.38;57.92;98894.66;5017390;28;20192;-35
2022/01/08 12:25:00;;;;;;;0.55;0.55;;;18.40;61.20;;;17.11;58.54;98870.59;5034519;28;20243;-35
2022/01/08 12:27:35;;;;;;;0.50;0.50;;;18.30;61.20;;;17.44;58.11;98894.00;4988404;28;20184;-36
2022/01/08 12:30:21;;;;;;;0.50;0.50;;;18.30;61.10;;;17.41;58.20;98889.13;5033730;28;20471;-34
2022/01/08 12:32:53;;;;;;;0.60;0.60;;;18.30;61.50;;;17.26;58.73;98881.16;5017358;28;20200;-34
2022/01/08 12:35:23;;;;;;;0.70;0.70;;;18.20;61.50;;;17.07;58.80;98855.44;5034227;28;20208;-34
2022/01/08 12:37:59;;;;;;;0.55;0.55;;;18.20;61.70;;;17.04;59.17;98853.19;5032845;28;20203;-34
2022/01/08 12:40:47;;;;;;;0.70;0.70;;;18.20;61.80;;;17.22;59.25;98869.41;5033904;28;20223;-34
2022/01/08 12:43:23;;;;;;;0.60;0.60;;;18.20;61.90;;;17.43;58.38;98866.31;5016746;28;20195;-34
2022/01/08 12:45:50;;;;;;;0.73;0.73;;;18.20;61.80;;;17.45;58.11;98856.53;5033446;28;20219;-35
2022/01/08 12:48:19;;;;;;;0.70;0.70;;;18.20;61.50;;;17.19;58.39;98827.25;5033611;28;20224;-34
2022/01/08 12:50:45;;;;;;;0.80;0.80;;;18.20;61.60;;;17.41;58.13;98845.59;5015911;28;20242;-34
2022/01/08 12:53:21;;;;;;;0.60;0.60;;;18.10;61.70;;;17.27;58.34;98824.63;5033527;28;20633;-34
2022/01/08 12:55:56;;;;;;;0.60;0.60;;;18.10;61.70;;;17.35;58.44;98837.63;5017368;28;20289;-33
2022/01/08 12:58:31;;;;;;;0.63;0.60;;;18.10;62.00;;;17.15;59.65;98836.38;5033449;28;20183;-34
2022/01/08 13:01:06;;;;;;;0.75;0.75;;;18.10;62.40;;;17.19;59.61;98832.47;5015706;28;20683;-33
2022/01/08 13:03:53;;;;;;;0.52;0.52;;;18.10;62.70;;;17.13;59.28;98815.66;5015855;28;20186;-33
2022/01/08 13:06:24;;;;;;;0.70;0.70;;;18.20;62.60;;;17.43;58.31;98824.56;5000340;28;20432;-34
2022/01/08 13:08:52;;;;;;;0.50;0.50;;;18.20;62.30;;;17.41;58.64;98808.28;5016010;28;20196;-35
2022/01/08 13:11:28;;;;;;;0.60;0.60;;;18.20;62.00;;;17.43;58.42;98793.28;4983303;28;20188;-34
2022/01/08 13:14:00;;;;;;;0.95;0.80;;;18.20;61.90;;;17.45;58.55;98792.13;5000590;28;20660;-35
2022/01/08 13:16:39;;;;;;;0.63;0.63;;;18.20;61.90;;;17.46;58.06;98785.09;5045716;28;20314;-35
2022/01/08 13:19:14;;;;;;;0.50;0.50;;;18.20;61.80;;;17.34;58.46;98778.63;5053357;28;20223;-34
2022/01/08 13:22:12;;;;;;;0.50;0.50;;;18.20;61.90;;;17.34;58.62;98776.03;5052560;28;20199;-35
2022/01/08 13:24:43;;;;;;;0.70;0.57;;;18.10;62.00;;;17.24;59.14;98762.38;5049446;28;20199;-35
2022/01/08 13:27:15;;;;;;;0.57;0.55;;;18.10;62.40;;;17.29;59.55;98765.31;5053424;28;20229;-34
2022/01/08 13:29:42;;;;;;;0.60;0.60;;;18.00;62.60;;;17.36;59.20;98755.81;5052277;28;20286;-34
2022/01/08 13:32:13;;;;;;;0.57;0.57;;;18.10;62.70;;;17.36;59.12;98746.22;5052007;28;20194;-34
2022/01/08 13:34:47;;;;;;;0.50;0.50;;;18.10;62.70;;;17.29;59.39;98742.66;5053533;28;20198;-35
2022/01/08 13:37:28;;;;;;;0.60;0.60;;;18.00;62.60;;;17.28;59.50;98732.38;5052264;28;20184;-35
2022/01/08 13:39:59;;;;;;;0.73;0.73;;;18.00;62.70;;;17.28;59.51;98742.81;5053296;28;20184;-34
2022/01/08 13:42:27;;;;;;;0.50;0.50;;;18.00;62.70;;;17.26;59.38;98747.38;5036078;28;20641;-35
2022/01/08 13:45:03;;;;;;;0.65;0.65;;;18.00;62.80;;;17.21;59.47;98734.06;5035303;28;20207;-34
2022/01/08 13:47:35;;;;;;;0.70;0.70;;;18.00;62.90;;;17.17;59.67;98741.38;5051833;28;20540;-34
2022/01/08 13:50:36;;;;;;;0.68;0.68;;;17.90;62.80;;;17.19;59.45;98728.19;5053384;28;20187;-34
2022/01/08 13:53:08;;;;;;;0.60;0.60;;;17.90;63.00;;;17.18;59.62;98722.16;5067893;28;20282;-34
2022/01/08 13:55:43;;;;;;;0.60;0.57;;;17.90;63.10;;;17.13;59.57;98714.81;5051697;28;20211;-34
2022/01/08 13:58:20;;;;;;;0.60;0.60;;;17.90;63.10;;;17.15;59.82;98711.25;5053269;28;20228;-34
2022/01/08 14:00:58;;;;;;;0.70;0.70;;;17.90;63.30;;;17.15;59.81;98711.25;5052326;28;20180;-34
2022/01/08 14:03:29;;;;;;;0.70;0.70;;;17.90;63.40;;;16.96;60.02;98674.19;5055254;28;20496;-34
2022/01/08 14:05:57;;;;;;;1.27;0.77;;;17.80;63.30;;;17.10;60.13;98703.94;5055685;28;20195;-34
2022/01/08 14:08:23;;;;;;;0.52;0.52;;;17.80;63.30;;;16.99;60.23;98680.84;5039247;28;20640;-33
2022/01/08 14:10:53;;;;;;;0.60;0.60;;;17.80;63.40;;;17.02;60.34;98688.34;5055639;28;20199;-33
2022/01/08 14:13:21;;;;;;;0.60;0.60;;;17.80;63.50;;;16.87;60.40;98646.53;5055021;28;20235;-34
2022/01/08 14:15:53;;;;;;;0.60;0.60;;;17.80;63.60;;;17.03;60.18;98664.72;5055344;28;20588;-34
2022/01/08 14:18:22;;;;;;;0.50;0.50;;;17.80;63.80;;;17.00;60.34;98649.41;5055568;28;20551;-34
